Time;durP1;ratioP1;P1;durP2;ratioP2;P2;SDS_P1;SDS_P2;PMS_P1;PMS_P2;Temp;Humidity;BMP_temperature;BMP_pressure;BME280_temperature;BME280_humidity;BME280_pressure;Samples;Min_cycle;Max_cycle;Signal;HPM_P1;HPM_P2
2022/03/07 00:01:15;;;;;;;29.92;12.18;;;;;;;1.83;66.21;98576.34;5110539;28;20486;-95
2022/03/07 00:03:41;;;;;;;28.55;13.85;;;;;;;2.07;65.76;98597.44;5106110;28;20056;-95
2022/03/07 00:06:07;;;;;;;31.85;14.38;;;;;;;1.92;65.95;98574.63;5110601;28;20043;-93
2022/03/07 00:08:33;;;;;;;29.83;13.05;;;;;;;2.07;66.17;98607.91;5098817;28;20055;-94
2022/03/07 00:11:00;;;;;;;29.10;12.02;;;;;;;1.91;65.96;98585.97;5094810;28;20040;-94
2022/03/07 00:13:26;;;;;;;29.65;12.45;;;;;;;2.03;66.11;98609.66;5091036;28;20071;-94
2022/03/07 00:15:52;;;;;;;27.52;12.13;;;;;;;1.95;66.47;98598.25;5099663;28;20044;-94
2022/03/07 00:18:19;;;;;;;25.20;10.88;;;;;;;1.93;66.40;98597.34;5090934;28;20101;-94
2022/03/07 00:20:45;;;;;;;28.90;13.30;;;;;;;2.04;66.68;98620.16;5093317;28;20040;-95
2022/03/07 00:23:11;;;;;;;34.08;14.32;;;;;;;1.90;66.51;98590.34;5077711;28;20052;-94
2022/03/07 00:25:37;;;;;;;32.00;15.65;;;;;;;1.93;66.61;98605.22;5084580;28;20101;-94
2022/03/07 00:28:03;;;;;;;28.67;12.27;;;;;;;1.89;66.69;98599.09;5091985;28;20048;-93
2022/03/07 00:30:29;;;;;;;32.17;12.32;;;;;;;2.07;66.84;98623.66;5090130;28;20056;-94
2022/03/07 00:32:55;;;;;;;29.48;13.07;;;;;;;1.87;66.98;98598.22;5081888;28;20045;-95
2022/03/07 00:35:22;;;;;;;36.63;15.10;;;;;;;2.01;67.44;98621.88;5081487;28;20050;-93
2022/03/07 00:37:48;;;;;;;30.88;12.70;;;;;;;2.02;67.08;98618.41;5083439;28;20053;-94
2022/03/07 00:40:14;;;;;;;28.73;13.05;;;;;;;2.04;67.24;98622.78;5080716;28;20049;-94
2022/03/07 00:42:40;;;;;;;29.10;12.00;;;;;;;2.04;67.38;98620.16;5098626;28;20048;-95
2022/03/07 00:45:07;;;;;;;31.45;13.18;;;;;;;2.00;67.53;98607.03;5098609;28;20115;-94
2022/03/07 00:47:34;;;;;;;25.38;11.85;;;;;;;2.00;67.45;98601.78;5086527;28;20036;-94
2022/03/07 00:50:00;;;;;;;35.10;13.75;;;;;;;1.98;67.57;98606.13;5098561;28;20040;-95
2022/03/07 00:52:27;;;;;;;25.73;11.95;;;;;;;1.96;67.59;98607.88;5097608;28;20046;-94
2022/03/07 00:54:53;;;;;;;34.67;13.98;;;;;;;2.09;68.16;98632.41;5097080;28;20046;-94
2022/03/07 00:57:19;;;;;;;33.67;14.63;;;;;;;2.03;68.01;98615.75;5097944;28;20044;-94
2022/03/07 00:59:44;;;;;;;27.27;12.75;;;;;;;2.03;67.94;98615.75;5097973;28;20036;-94
2022/03/07 01:02:11;;;;;;;29.27;12.02;;;;;;;1.95;68.00;98598.25;5097456;28;20093;-94
2022/03/07 01:04:36;;;;;;;28.67;11.68;;;;;;;2.05;68.11;98615.78;5096518;28;20052;-95
2022/03/07 01:07:03;;;;;;;31.27;11.10;;;;;;;1.97;68.05;98601.75;5096628;28;20130;-94
2022/03/07 01:09:30;;;;;;;30.60;14.10;;;;;;;2.03;68.22;98615.75;5097124;28;20067;-94
2022/03/07 01:11:56;;;;;;;34.13;13.32;;;;;;;2.00;68.28;98615.75;5096917;28;20089;-96
2022/03/07 01:14:22;;;;;;;28.15;12.57;;;;;;;1.98;68.12;98590.41;5097601;28;20036;-94
2022/03/07 01:16:48;;;;;;;33.38;14.02;;;;;;;2.11;68.21;98620.19;5085588;28;20079;-95
2022/03/07 01:19:14;;;;;;;28.52;12.63;;;;;;;2.07;68.21;98611.41;5086226;28;20040;-94
2022/03/07 01:21:40;;;;;;;27.58;12.55;;;;;;;2.00;68.00;98597.41;5096507;28;20063;-94
2022/03/07 01:24:06;;;;;;;25.17;11.70;;;;;;;2.14;68.20;98617.56;5092067;28;20401;-94
2022/03/07 01:26:35;;;;;;;27.90;12.63;;;;;;;1.98;68.12;98586.03;5088731;28;20126;-95
2022/03/07 01:29:01;;;;;;;24.60;12.38;;;;;;;2.20;68.01;98615.84;5096683;28;20040;-95
2022/03/07 01:31:28;;;;;;;27.45;11.85;;;;;;;2.17;68.21;98609.69;5095413;28;20102;-95
2022/03/07 01:33:54;;;;;;;32.38;13.20;;;;;;;2.03;68.60;98581.66;5097130;28;20044;-95
2022/03/07 01:36:19;;;;;;;32.70;12.45;;;;;;;2.13;68.29;98608.81;5096906;28;20066;-94
2022/03/07 01:38:45;;;;;;;32.10;11.63;;;;;;;2.13;68.47;98592.22;5096162;28;20090;-92
2022/03/07 01:41:12;;;;;;;27.90;10.93;;;;;;;2.24;68.62;98617.59;5095727;28;20055;-94
2022/03/07 01:43:39;;;;;;;26.60;12.30;;;;;;;2.17;68.48;98592.22;5091485;28;20052;-94
2022/03/07 01:46:05;;;;;;;31.60;13.00;;;;;;;2.17;68.70;98583.47;5090125;28;20058;-94
2022/03/07 01:48:31;;;;;;;31.02;12.38;;;;;;;2.03;69.12;98576.41;5095855;28;20118;-92
2022/03/07 01:50:57;;;;;;;33.17;12.20;;;;;;;2.26;68.21;98592.25;5095752;28;20048;-93
2022/03/07 01:53:23;;;;;;;30.58;11.55;;;;;;;2.20;69.32;98594.84;5093815;28;20375;-93
2022/03/07 01:55:49;;;;;;;32.05;12.07;;;;;;;2.08;69.23;98573.81;5095715;28;20050;-95
2022/03/07 01:58:15;;;;;;;37.60;13.98;;;;;;;2.24;69.12;98599.25;5095703;28;20516;-94
2022/03/07 02:00:42;;;;;;;35.60;12.57;;;;;;;2.01;69.58;98557.19;5095200;28;20048;-94
2022/03/07 02:03:08;;;;;;;32.78;13.23;;;;;;;2.23;69.44;98588.72;5077179;28;20083;-92
2022/03/07 02:05:34;;;;;;;34.50;14.05;;;;;;;2.00;69.90;98557.19;5075149;28;20418;-95
2022/03/07 02:08:00;;;;;;;38.45;13.13;;;;;;;2.11;70.15;98588.72;5074820;28;20158;-93
2022/03/07 02:10:27;;;;;;;32.15;12.50;;;;;;;2.09;70.19;98588.69;5075042;28;20079;-94
2022/03/07 02:12:53;;;;;;;34.58;12.23;;;;;;;1.95;70.47;98565.03;5091063;28;20056;-95
2022/03/07 02:15:19;;;;;;;28.52;11.98;;;;;;;1.89;70.71;98570.25;5095348;28;20153;-94
2022/03/07 02:17:47;;;;;;;27.63;12.35;;;;;;;1.90;70.59;98564.13;5095216;28;20605;-95
2022/03/07 02:20:13;;;;;;;30.20;11.65;;;;;;;1.94;71.26;98576.38;5095157;28;20044;-95
2022/03/07 02:22:41;;;;;;;31.60;12.27;;;;;;;1.97;71.21;98586.88;5095339;28;20052;-95
2022/03/07 02:25:08;;;;;;;30.83;13.25;;;;;;;2.01;71.37;98593.03;5090619;28;20067;-95
2022/03/07 02:27:34;;;;;;;25.95;11.88;;;;;;;2.03;71.35;98583.41;5074999;28;20482;-95
2022/03/07 02:30:00;;;;;;;32.10;12.18;;;;;;;1.95;71.32;98557.19;5074985;28;20116;-94
2022/03/07 02:32:26;;;;;;;29.80;12.35;;;;;;;2.05;69.27;98558.06;5077848;28;20098;-95
2022/03/07 02:34:52;;;;;;;27.63;12.00;;;;;;;2.04;69.30;98556.34;5074962;28;20055;-94
2022/03/07 02:37:19;;;;;;;39.63;13.35;;;;;;;2.08;69.69;98568.56;5087439;28;20119;-93
2022/03/07 02:39:46;;;;;;;30.52;12.57;;;;;;;2.02;69.17;98552.84;5078265;28;20048;-93
2022/03/07 02:42:12;;;;;;;33.78;13.65;;;;;;;2.02;69.53;98556.31;5077845;28;20456;-94
2022/03/07 02:44:38;;;;;;;34.72;12.32;;;;;;;1.95;69.74;98556.28;5096242;28;20052;-94
2022/03/07 02:47:04;;;;;;;37.53;13.13;;;;;;;1.95;70.33;98567.66;5094553;28;20048;-94
2022/03/07 02:49:31;;;;;;;31.27;12.88;;;;;;;1.97;70.56;98580.75;5094976;28;20417;-93
2022/03/07 02:51:56;;;;;;;31.77;12.20;;;;;;;1.87;70.50;98556.25;5094523;28;20097;-93
2022/03/07 02:54:22;;;;;;;29.50;12.55;;;;;;;1.92;70.44;98572.88;5094865;28;20044;-94
2022/03/07 02:56:50;;;;;;;29.95;13.95;;;;;;;1.82;70.47;98556.25;5095522;28;20138;-94
2022/03/07 02:59:16;;;;;;;32.80;13.75;;;;;;;1.96;70.54;98579.91;5095282;28;20052;-93
2022/03/07 03:01:44;;;;;;;34.55;11.75;;;;;;;1.82;70.67;98552.72;5095605;28;20505;-94
2022/03/07 03:04:10;;;;;;;36.88;12.73;;;;;;;2.02;70.61;98585.16;5095219;28;20044;-95
2022/03/07 03:06:36;;;;;;;33.83;12.63;;;;;;;1.92;70.41;98567.63;5094874;28;20079;-92
2022/03/07 03:09:02;;;;;;;34.17;12.82;;;;;;;1.90;70.83;98564.13;5094430;28;20071;-94
2022/03/07 03:11:28;;;;;;;31.65;12.90;;;;;;;1.98;71.27;98587.78;5094879;28;20040;-94
2022/03/07 03:13:56;;;;;;;33.97;14.13;;;;;;;1.92;71.08;98583.38;5095619;28;20097;-94
2022/03/07 03:16:21;;;;;;;31.08;12.07;;;;;;;1.77;71.14;98549.22;5094446;28;20048;-95
2022/03/07 03:18:47;;;;;;;29.77;12.75;;;;;;;1.77;71.10;98551.84;5095921;28;20047;-94
2022/03/07 03:21:13;;;;;;;31.40;12.38;;;;;;;1.94;71.32;98589.50;5095572;28;20044;-94
2022/03/07 03:23:39;;;;;;;33.70;12.43;;;;;;;1.82;71.54;98574.59;5079099;28;20048;-96
2022/03/07 03:26:05;;;;;;;31.95;13.48;;;;;;;1.81;71.51;98575.44;5085737;28;20101;-94
2022/03/07 03:28:30;;;;;;;32.17;13.65;;;;;;;1.79;71.43;98569.31;5094887;28;20062;-94
2022/03/07 03:30:58;;;;;;;37.30;14.35;;;;;;;1.70;71.88;98558.81;5096872;28;20044;-94
2022/03/07 03:33:24;;;;;;;29.05;12.13;;;;;;;1.89;72.03;98592.97;5095439;28;20044;-94
2022/03/07 03:35:49;;;;;;;39.80;15.10;;;;;;;1.64;72.10;98556.16;5090368;28;20096;-94
2022/03/07 03:38:15;;;;;;;29.05;11.73;;;;;;;1.78;72.40;98575.44;5074457;28;20451;-94
2022/03/07 03:40:41;;;;;;;31.02;12.07;;;;;;;1.68;72.71;98571.03;5085084;28;20048;-94
2022/03/07 03:43:07;;;;;;;31.77;12.82;;;;;;;1.66;72.58;98558.78;5096627;28;20047;-93
2022/03/07 03:45:33;;;;;;;30.33;12.02;;;;;;;1.63;73.00;98570.13;5094338;28;20051;-94
2022/03/07 03:48:01;;;;;;;33.67;12.60;;;;;;;1.69;73.07;98580.63;5096250;28;20071;-94
2022/03/07 03:50:26;;;;;;;34.97;13.43;;;;;;;1.77;72.88;98589.41;5095487;28;20044;-95
2022/03/07 03:52:52;;;;;;;32.58;12.40;;;;;;;1.63;72.86;98563.13;5095506;28;20408;-95
2022/03/07 03:55:18;;;;;;;27.30;12.50;;;;;;;1.80;72.59;98593.78;5097883;28;20070;-93
2022/03/07 03:57:44;;;;;;;32.65;13.38;;;;;;;1.66;72.67;98566.66;5079071;28;20053;-95
2022/03/07 04:00:13;;;;;;;34.90;13.10;;;;;;;1.61;72.94;98562.25;5095184;28;20042;-95
2022/03/07 04:02:39;;;;;;;33.15;16.13;;;;;;;1.66;73.02;98575.38;5099408;28;20055;-95
2022/03/07 04:05:07;;;;;;;29.35;11.80;;;;;;;1.63;73.21;98575.38;5098325;28;20044;-94
2022/03/07 04:07:32;;;;;;;30.45;12.15;;;;;;;1.76;73.43;98594.66;5098544;28;20094;-95
2022/03/07 04:09:58;;;;;;;39.05;12.48;;;;;;;1.64;73.18;98584.97;5099399;28;20036;-95
2022/03/07 04:12:24;;;;;;;32.15;11.73;;;;;;;1.51;73.58;98563.06;5098266;28;20089;-94
2022/03/07 04:14:50;;;;;;;29.65;12.05;;;;;;;1.61;73.77;98588.47;5099137;28;20176;-94
2022/03/07 04:17:16;;;;;;;35.30;13.13;;;;;;;1.64;73.71;98603.31;5098658;28;20055;-94
2022/03/07 04:19:42;;;;;;;28.98;12.77;;;;;;;1.49;74.06;98571.78;5100220;28;20400;-94
2022/03/07 04:22:09;;;;;;;29.02;12.05;;;;;;;1.43;73.71;98568.28;5098230;28;20439;-94
2022/03/07 04:24:35;;;;;;;25.25;10.93;;;;;;;1.68;73.47;98593.75;5097819;28;20039;-95
2022/03/07 04:27:03;;;;;;;30.80;11.85;;;;;;;1.62;73.56;98590.19;5094204;28;20490;-94
2022/03/07 04:29:28;;;;;;;28.50;10.40;;;;;;;1.53;74.00;98592.78;5078629;28;20047;-95
2022/03/07 04:31:54;;;;;;;31.48;12.48;;;;;;;1.46;73.96;98588.38;5092353;28;20139;-94
2022/03/07 04:34:20;;;;;;;32.33;12.23;;;;;;;1.44;74.89;98598.84;5088219;28;20048;-94
2022/03/07 04:36:46;;;;;;;29.42;13.05;;;;;;;1.51;75.42;98614.59;5092442;28;20044;-95
2022/03/07 04:39:13;;;;;;;29.45;12.32;;;;;;;1.54;74.65;98607.66;5097865;28;20039;-94
2022/03/07 04:41:40;;;;;;;28.50;11.82;;;;;;;1.54;74.87;98612.00;5093398;28;20445;-94
2022/03/07 04:44:06;;;;;;;28.65;11.57;;;;;;;1.36;74.91;98589.16;5077021;28;20048;-95
2022/03/07 04:46:32;;;;;;;34.25;12.18;;;;;;;1.31;75.53;98581.28;5089628;28;20160;-96
2022/03/07 04:48:58;;;;;;;26.50;10.80;;;;;;;1.33;76.06;98603.13;5097116;28;20049;-95
2022/03/07 04:51:24;;;;;;;29.73;11.07;;;;;;;1.16;76.44;98583.81;5093107;28;20081;-95
2022/03/07 04:53:50;;;;;;;34.88;12.20;;;;;;;1.13;77.28;98591.63;5097348;28;20131;-95
2022/03/07 04:56:17;;;;;;;30.50;11.15;;;;;;;0.98;78.31;98592.41;5097131;28;20079;-95
2022/03/07 04:58:43;;;;;;;27.85;11.32;;;;;;;1.02;78.20;98607.28;5097335;28;20071;-94
2022/03/07 05:01:09;;;;;;;29.02;12.50;;;;;;;1.01;78.80;98626.44;5094252;28;20082;-94
2022/03/07 05:03:35;;;;;;;27.80;12.50;;;;;;;0.85;79.13;98604.50;5076759;28;20098;-95
2022/03/07 05:06:02;;;;;;;27.75;12.20;;;;;;;0.73;79.34;98601.75;5097642;28;20040;-95
2022/03/07 05:08:28;;;;;;;30.98;11.30;;;;;;;0.74;79.28;98619.22;5097928;28;20044;-94
2022/03/07 05:10:53;;;;;;;30.90;12.77;;;;;;;0.67;80.34;98636.59;5093125;28;20090;-94
2022/03/07 05:13:21;;;;;;;32.67;12.18;;;;;;;0.37;80.86;98611.00;5091739;28;20521;-94
2022/03/07 05:15:47;;;;;;;34.15;13.13;;;;;;;0.42;82.01;98642.44;5086124;28;20097;-94
2022/03/07 05:18:14;;;;;;;35.28;13.73;;;;;;;0.27;82.44;98620.47;5082842;28;20037;-94
2022/03/07 05:20:40;;;;;;;35.70;13.57;;;;;;;0.41;81.23;98625.84;5095495;28;20071;-94
2022/03/07 05:23:06;;;;;;;29.98;11.57;;;;;;;0.40;81.41;98606.66;5098831;28;20067;-95
2022/03/07 05:25:32;;;;;;;46.13;15.10;;;;;;;0.58;81.18;98626.03;5082821;28;20032;-96
2022/03/07 05:27:58;;;;;;;36.60;13.50;;;;;;;0.63;80.36;98610.38;5099829;28;20036;-95
2022/03/07 05:30:25;;;;;;;35.03;13.38;;;;;;;0.58;80.61;98613.81;5098366;28;20074;-95
2022/03/07 05:32:53;;;;;;;34.97;13.20;;;;;;;0.75;79.33;98608.75;5099379;28;20135;-94
2022/03/07 05:35:20;;;;;;;32.25;12.65;;;;;;;0.93;79.05;98638.59;5098430;28;20044;-95
2022/03/07 05:37:46;;;;;;;28.15;11.88;;;;;;;0.89;78.46;98615.84;5098827;28;20430;-94
2022/03/07 05:40:14;;;;;;;32.35;12.45;;;;;;;0.89;78.90;98616.75;5098853;28;20071;-95
2022/03/07 05:42:40;;;;;;;29.92;11.90;;;;;;;0.85;79.46;98609.72;5098932;28;20097;-94
2022/03/07 05:45:08;;;;;;;31.42;12.32;;;;;;;0.89;79.77;98623.72;5098801;28;20063;-94
2022/03/07 05:47:36;;;;;;;32.45;12.63;;;;;;;0.94;79.81;98625.53;5099039;28;20078;-95
2022/03/07 05:50:03;;;;;;;30.02;12.98;;;;;;;1.17;77.88;98620.50;5098599;28;20082;-94
2022/03/07 05:52:30;;;;;;;43.78;13.50;;;;;;;1.21;77.73;98624.00;5098220;28;20030;-94
2022/03/07 05:54:56;;;;;;;31.90;12.52;;;;;;;1.27;77.13;98623.16;5098756;28;20052;-95
2022/03/07 05:57:22;;;;;;;37.97;15.00;;;;;;;1.27;77.06;98617.94;5099308;28;20039;-95
2022/03/07 05:59:48;;;;;;;33.03;14.20;;;;;;;1.38;76.92;98627.59;5100666;28;20410;-95
2022/03/07 06:02:13;;;;;;;31.15;13.27;;;;;;;1.39;76.95;98629.38;5100833;28;20069;-92
2022/03/07 06:04:42;;;;;;;37.17;13.00;;;;;;;1.39;76.90;98626.75;5100814;28;20048;-95
2022/03/07 06:07:08;;;;;;;34.50;14.18;;;;;;;1.41;76.93;98625.03;5099983;28;20123;-94
2022/03/07 06:09:34;;;;;;;33.88;13.27;;;;;;;1.44;77.50;98630.28;5098280;28;20048;-94
2022/03/07 06:12:00;;;;;;;31.13;13.10;;;;;;;1.52;77.00;98646.06;5100467;28;20058;-95
2022/03/07 06:14:25;;;;;;;35.90;13.95;;;;;;;1.60;76.97;98643.47;5098933;28;20501;-96
2022/03/07 06:16:51;;;;;;;30.25;12.63;;;;;;;1.72;76.95;98663.69;5100844;28;20040;-94
2022/03/07 06:19:17;;;;;;;34.15;13.55;;;;;;;1.61;77.45;98638.25;5098218;28;20109;-94
2022/03/07 06:21:45;;;;;;;35.35;13.48;;;;;;;1.74;76.68;98652.31;5097505;28;20202;-93
2022/03/07 06:24:11;;;;;;;35.38;14.25;;;;;;;1.78;76.87;98648.00;5099200;28;20052;-94
2022/03/07 06:26:36;;;;;;;38.05;12.75;;;;;;;1.89;76.48;98646.31;5098420;28;20405;-95
2022/03/07 06:29:02;;;;;;;32.85;14.40;;;;;;;1.97;76.38;98648.94;5097527;28;20036;-94
2022/03/07 06:31:28;;;;;;;27.52;12.00;;;;;;;2.17;75.77;98667.41;5096821;28;20572;-95
2022/03/07 06:33:54;;;;;;;28.02;12.25;;;;;;;2.12;75.51;98635.03;5098753;28;20512;-95
2022/03/07 06:36:21;;;;;;;32.17;13.73;;;;;;;2.20;75.60;98646.44;5096836;28;20040;-96
2022/03/07 06:38:48;;;;;;;31.05;13.38;;;;;;;2.40;74.80;98673.63;5098064;28;20473;-94
2022/03/07 06:41:14;;;;;;;29.17;12.32;;;;;;;2.35;75.16;98646.50;5097529;28;20040;-95
2022/03/07 06:43:40;;;;;;;31.88;12.55;;;;;;;2.50;74.55;98650.06;5098965;28;20081;-93
2022/03/07 06:46:06;;;;;;;33.65;13.68;;;;;;;2.55;74.62;98666.69;5097673;28;20044;-94
2022/03/07 06:48:35;;;;;;;27.08;11.88;;;;;;;2.76;74.37;98681.66;5097436;28;20101;-94
2022/03/07 06:51:08;;;;;;;30.40;12.15;;;;;;;2.72;74.04;98665.00;5097580;28;20532;-94
2022/03/07 06:53:35;;;;;;;30.83;12.23;;;;;;;2.83;73.71;98686.91;5098917;28;20040;-95
2022/03/07 06:56:02;;;;;;;29.67;12.27;;;;;;;2.83;74.29;98678.16;5098208;28;20075;-94
2022/03/07 06:58:28;;;;;;;30.00;12.50;;;;;;;2.80;73.98;98689.53;5097900;28;20047;-94
2022/03/07 07:00:54;;;;;;;30.33;12.93;;;;;;;2.70;74.28;98671.13;5096113;28;20048;-96
2022/03/07 07:03:20;;;;;;;29.33;12.68;;;;;;;2.74;73.73;98673.75;5095586;28;20055;-94
2022/03/07 07:05:46;;;;;;;30.77;12.55;;;;;;;2.76;74.20;98684.28;5096271;28;20044;-95
2022/03/07 07:08:11;;;;;;;32.13;12.00;;;;;;;2.71;73.76;98679.00;5096397;28;20047;-94
2022/03/07 07:10:38;;;;;;;29.63;12.88;;;;;;;2.84;74.42;98707.06;5096310;28;20397;-95
2022/03/07 07:13:05;;;;;;;29.70;12.20;;;;;;;2.88;72.89;98692.16;5098983;28;20036;-94
2022/03/07 07:15:31;;;;;;;31.50;12.05;;;;;;;2.95;73.11;98704.47;5092846;28;20044;-94
2022/03/07 07:17:57;;;;;;;36.55;14.63;;;;;;;2.93;73.75;98714.09;5095835;28;20151;-94
2022/03/07 07:20:23;;;;;;;36.67;15.73;;;;;;;2.90;73.90;98721.06;5095317;28;20127;-94
2022/03/07 07:22:49;;;;;;;30.77;13.68;;;;;;;2.97;74.63;98720.19;5095909;28;20044;-95
2022/03/07 07:25:14;;;;;;;33.63;14.23;;;;;;;3.07;74.09;98717.59;5095402;28;20616;-95
2022/03/07 07:27:41;;;;;;;36.92;14.77;;;;;;;3.02;74.13;98719.34;5095214;28;20139;-94
2022/03/07 07:30:09;;;;;;;36.25;14.50;;;;;;;3.12;74.52;98737.75;5097633;28;20056;-95
2022/03/07 07:32:35;;;;;;;38.90;15.75;;;;;;;3.07;73.95;98735.13;5099955;28;20493;-94
2022/03/07 07:35:01;;;;;;;32.78;14.50;;;;;;;3.13;73.94;98715.88;5098812;28;20126;-94
2022/03/07 07:37:27;;;;;;;32.92;14.27;;;;;;;3.34;73.45;98733.41;5099015;28;20105;-96
2022/03/07 07:39:53;;;;;;;31.15;13.27;;;;;;;3.20;72.78;98708.00;5099835;28;20040;-94
2022/03/07 07:42:18;;;;;;;35.45;15.18;;;;;;;3.44;72.48;98727.28;5099254;28;20036;-93
2022/03/07 07:44:44;;;;;;;38.25;14.75;;;;;;;3.59;72.59;98737.81;5099367;28;20589;-93
2022/03/07 07:47:11;;;;;;;39.00;16.83;;;;;;;3.47;71.95;98717.66;5098704;28;20052;-93
2022/03/07 07:49:38;;;;;;;30.73;12.57;;;;;;;3.67;71.40;98729.94;5088030;28;20144;-95
2022/03/07 07:52:05;;;;;;;34.58;14.52;;;;;;;3.69;71.27;98729.06;5086252;28;20068;-93
2022/03/07 07:54:31;;;;;;;33.90;14.40;;;;;;;3.63;71.96;98717.66;5119700;28;20044;-95
2022/03/07 07:56:57;;;;;;;33.50;13.98;;;;;;;3.90;71.78;98743.97;5120636;28;20122;-94
2022/03/07 07:59:23;;;;;;;35.38;15.45;;;;;;;3.91;70.65;98721.16;5120454;28;20056;-95
2022/03/07 08:01:49;;;;;;;36.53;16.30;;;;;;;3.91;71.02;98750.09;5117076;28;20036;-95
2022/03/07 08:04:16;;;;;;;34.63;13.90;;;;;;;3.99;70.93;98736.91;5081605;28;20090;-96
2022/03/07 08:06:42;;;;;;;46.08;18.85;;;;;;;4.02;69.74;98729.03;5090051;28;20048;-95
2022/03/07 08:09:08;;;;;;;31.38;14.70;;;;;;;4.19;68.51;98736.91;5099119;28;20049;-95
2022/03/07 08:11:34;;;;;;;31.75;14.77;;;;;;;4.11;69.54;98732.50;5099595;28;20052;-94
2022/03/07 08:14:00;;;;;;;40.65;17.02;;;;;;;4.22;68.18;98723.72;5099253;28;20413;-94
2022/03/07 08:16:26;;;;;;;37.30;15.18;;;;;;;4.30;68.04;98746.53;5094921;28;20435;-95
2022/03/07 08:18:52;;;;;;;34.28;14.43;;;;;;;4.40;68.39;98721.06;5101414;28;20085;-95
2022/03/07 08:21:25;;;;;;;30.92;14.15;;;;;;;4.39;65.63;98715.78;5099481;28;20044;-95
2022/03/07 08:23:52;;;;;;;27.67;12.43;;;;;;;4.67;65.60;98732.38;5101679;28;20126;-95
2022/03/07 08:26:17;;;;;;;29.95;13.75;;;;;;;4.75;64.21;98756.94;5100430;28;20040;-96
2022/03/07 08:28:43;;;;;;;34.10;16.65;;;;;;;4.62;64.74;98735.03;5099783;28;20058;-95
2022/03/07 08:31:09;;;;;;;31.45;13.27;;;;;;;4.15;64.97;98722.88;5099134;28;20074;-94
2022/03/07 08:33:35;;;;;;;26.60;12.90;;;;;;;4.20;65.25;98750.03;5101543;28;20048;-94
2022/03/07 08:36:01;;;;;;;28.95;13.05;;;;;;;4.27;65.36;98721.94;5111326;28;20044;-94
2022/03/07 08:38:29;;;;;;;29.38;12.30;;;;;;;4.47;63.90;98721.91;5125286;28;20042;-95
2022/03/07 08:40:55;;;;;;;27.70;13.40;;;;;;;4.69;63.22;98749.03;5125606;28;20047;-93
2022/03/07 08:43:21;;;;;;;29.35;14.57;;;;;;;4.60;63.04;98742.06;5125609;28;20040;-93
2022/03/07 08:45:47;;;;;;;29.80;13.30;;;;;;;4.37;64.24;98736.84;5122380;28;20054;-94
2022/03/07 08:48:13;;;;;;;33.25;15.48;;;;;;;4.54;64.27;98731.53;5114244;28;20060;-95
2022/03/07 08:50:39;;;;;;;29.02;14.05;;;;;;;4.33;65.12;98738.59;5093432;28;20082;-95
2022/03/07 08:53:05;;;;;;;27.35;13.18;;;;;;;3.98;66.29;98738.69;5089937;28;20040;-93
2022/03/07 08:55:33;;;;;;;30.35;13.98;;;;;;;4.32;65.86;98752.66;5104891;28;20173;-95
2022/03/07 08:58:00;;;;;;;33.67;13.85;;;;;;;4.31;65.94;98740.34;5105390;28;20047;-93
2022/03/07 09:00:25;;;;;;;30.48;13.63;;;;;;;4.33;66.14;98751.75;5090345;28;20044;-95
2022/03/07 09:02:51;;;;;;;25.48;12.25;;;;;;;4.56;64.83;98747.34;5109047;28;20484;-94
2022/03/07 09:05:17;;;;;;;29.90;13.35;;;;;;;4.46;64.45;98743.84;5126477;28;20489;-93
2022/03/07 09:07:43;;;;;;;25.65;12.38;;;;;;;4.46;65.59;98762.28;5110672;28;20527;-93
2022/03/07 09:10:10;;;;;;;29.10;13.63;;;;;;;4.23;65.07;98763.22;5092423;28;20044;-94
2022/03/07 09:12:37;;;;;;;24.90;12.73;;;;;;;4.29;65.49;98767.56;5101596;28;20055;-92
2022/03/07 09:15:05;;;;;;;28.77;12.80;;;;;;;4.40;65.05;98752.66;5102863;28;20040;-92
2022/03/07 09:17:31;;;;;;;27.65;14.80;;;;;;;4.42;64.82;98802.66;5094178;28;20067;-93
2022/03/07 09:19:59;;;;;;;27.75;12.98;;;;;;;4.30;64.27;98780.75;5101766;28;20036;-96
2022/03/07 09:22:28;;;;;;;65.57;27.25;;;;;;;4.52;63.93;98754.38;5104008;28;20047;-94
2022/03/07 09:24:54;;;;;;;28.92;14.32;;;;;;;4.76;63.45;98763.94;5107005;28;20062;-93
2022/03/07 09:27:20;;;;;;;26.33;12.77;;;;;;;4.60;64.22;98784.19;5103651;28;20501;-92
2022/03/07 09:29:48;;;;;;;28.48;13.65;;;;;;;4.60;64.24;98771.03;5104957;28;20131;-94
2022/03/07 09:32:14;;;;;;;39.72;16.80;;;;;;;4.83;63.42;98773.56;5101924;28;20036;-94
2022/03/07 09:34:40;;;;;;;30.15;13.25;;;;;;;4.88;62.78;98768.25;5090651;28;20143;-94
2022/03/07 09:37:06;;;;;;;23.05;12.35;;;;;;;4.89;62.84;98765.63;5105107;28;20044;-94
2022/03/07 09:39:33;;;;;;;27.05;13.18;;;;;;;5.09;62.14;98775.19;5105197;28;20036;-94
2022/03/07 09:42:01;;;;;;;24.45;13.32;;;;;;;5.10;62.54;98785.75;5092426;28;20040;-96
2022/03/07 09:44:28;;;;;;;27.95;12.27;;;;;;;5.22;62.40;98776.03;5105214;28;20055;-94
2022/03/07 09:46:57;;;;;;;23.95;12.80;;;;;;;5.34;62.17;98765.41;5085689;28;20486;-95
2022/03/07 09:49:24;;;;;;;28.48;12.88;;;;;;;5.44;61.80;98769.72;5088574;28;20040;-94
2022/03/07 09:51:50;;;;;;;29.05;13.82;;;;;;;5.49;61.46;98773.22;5084707;28;20048;-94
2022/03/07 09:54:16;;;;;;;25.85;13.20;;;;;;;5.48;61.14;98791.69;5098913;28;20401;-95
2022/03/07 09:56:41;;;;;;;28.48;13.45;;;;;;;5.36;60.67;98808.47;5103011;28;20051;-95
2022/03/07 09:59:07;;;;;;;24.73;12.40;;;;;;;5.45;61.03;98786.44;5090052;28;20045;-93
2022/03/07 10:01:35;;;;;;;29.75;13.48;;;;;;;5.39;61.00;98776.78;5099791;28;20055;-93
2022/03/07 10:04:06;;;;;;;29.58;14.40;;;;;;;5.35;62.04;98770.66;5106259;28;20052;-94
2022/03/07 10:06:32;;;;;;;29.17;14.10;;;;;;;5.37;61.91;98780.34;5104118;28;20044;-94
2022/03/07 10:09:30;;;;;;;28.60;13.00;;;;;;;6.10;60.11;98803.56;5103959;28;20055;-94
2022/03/07 10:12:03;;;;;;;30.85;13.63;;;;;;;6.45;58.07;98769.81;5106514;28;20053;-96
2022/03/07 10:14:45;;;;;;;26.08;14.57;;;;;;;6.74;56.85;98772.13;5103810;28;20044;-95
2022/03/07 10:17:18;;;;;;;;;;;;;;;6.89;56.70;98808.06;5093803;28;20047;-96
2022/03/07 10:19:47;;;;;;;28.02;12.40;;;;;;;7.13;57.26;98796.31;5107286;28;19975;-96
2022/03/07 10:22:15;;;;;;;26.58;14.18;;;;;;;6.52;56.55;98789.97;5102747;28;20374;-95
2022/03/07 10:24:41;;;;;;;22.48;12.93;;;;;;;6.10;56.00;98785.09;5094609;28;20051;-92
2022/03/07 10:27:07;;;;;;;27.60;14.32;;;;;;;6.20;56.99;98790.28;5097360;28;20048;-92
2022/03/07 10:29:33;;;;;;;28.88;13.35;;;;;;;6.06;55.94;98791.28;5089770;28;20120;-92
2022/03/07 10:32:00;;;;;;;33.95;15.25;;;;;;;6.31;56.45;98777.84;5099716;28;20502;-92
2022/03/07 10:34:26;;;;;;;23.42;12.70;;;;;;;6.11;56.45;98792.13;5097425;28;20044;-92
2022/03/07 10:36:54;;;;;;;26.33;12.20;;;;;;;6.32;55.36;98821.88;5084485;28;20044;-93
2022/03/07 10:39:25;;;;;;;22.23;10.88;;;;;;;6.28;54.57;98794.59;5099396;28;20072;-94
2022/03/07 10:41:52;;;;;;;22.27;12.68;;;;;;;5.91;55.60;98808.09;5099832;28;20079;-93
2022/03/07 10:44:27;;;;;;;20.17;11.35;;;;;;;6.01;56.25;98826.53;5086278;28;20036;-92
2022/03/07 10:46:53;;;;;;;24.02;12.75;;;;;;;5.72;56.40;98853.97;5093710;28;20048;-92
2022/03/07 10:49:19;;;;;;;23.40;12.05;;;;;;;5.19;58.57;98810.31;5088892;28;20039;-93
2022/03/07 10:51:51;;;;;;;25.67;13.00;;;;;;;5.53;57.95;98825.06;5091651;28;20047;-92
2022/03/07 10:54:19;;;;;;;28.73;12.70;;;;;;;5.27;56.70;98825.22;5088545;28;20516;-92
2022/03/07 10:56:49;;;;;;;26.80;11.82;;;;;;;5.12;57.46;98825.28;5093694;28;20101;-92
2022/03/07 10:59:26;;;;;;;28.80;13.10;;;;;;;5.37;57.26;98825.16;5097203;28;20044;-93
2022/03/07 11:01:59;;;;;;;26.52;12.65;;;;;;;5.22;57.64;98836.66;5090078;28;20036;-91
2022/03/07 11:04:25;;;;;;;21.77;11.32;;;;;;;5.09;57.94;98831.44;5094145;28;20040;-93
2022/03/07 11:06:52;;;;;;;29.20;12.50;;;;;;;5.26;57.61;98814.66;5081530;28;20542;-94
2022/03/07 11:09:19;;;;;;;25.77;13.02;;;;;;;5.07;58.05;98838.47;5095472;28;20048;-92
2022/03/07 11:11:45;;;;;;;26.27;11.65;;;;;;;5.40;58.20;98844.50;5094466;28;20083;-92
2022/03/07 11:14:13;;;;;;;28.50;12.82;;;;;;;5.34;57.26;98821.66;5083072;28;20090;-92
2022/03/07 11:16:39;;;;;;;30.88;14.27;;;;;;;5.45;56.89;98808.41;5087146;28;20080;-94
2022/03/07 11:19:07;;;;;;;28.67;13.02;;;;;;;5.37;56.49;98804.94;5094165;28;20385;-93
2022/03/07 11:21:35;;;;;;;32.88;14.27;;;;;;;5.53;57.92;98825.06;5089013;28;20040;-94
2022/03/07 11:24:02;;;;;;;24.63;13.57;;;;;;;5.35;56.72;98804.94;5093684;28;20041;-94